Maldives Meteorological Service

SYNOP

Station Code SYNOP
43555
AAXX 21124 43555 12475 32506 10308 20260 30062 40064 60002 82202 333 10320 59011 82818=
43533
AAXX 21124 43533 11465 72709 10295 20261 30059 40061 60012 70282 8597/ 333 10316 59007 83817 82918 87362=
43577
AAXX 21124 43577 12468 62305 10308 20254 30066 40068 60002 82242 333 10322 59007 82818 86077=
43588
AAXX 21124 43588 12465 52307 10302 20257 30062 40063 60002 81206 333 10313 59014 81818 85077=
43599
AAXX 21124 43599 12462 61805 10294 20247 30066 40068 60002 81101 333 10314 59012 81818 86077=
Last Updated : 2017-08-21 17:00:14